Time;durP1;ratioP1;P1;durP2;ratioP2;P2;SDS_P1;SDS_P2;PMS_P1;PMS_P2;Temp;Humidity;BMP_temperature;BMP_pressure;BME280_temperature;BME280_humidity;BME280_pressure;Samples;Min_cycle;Max_cycle;Signal;HPM_P1;HPM_P2
2022/04/13 08:00:09;;;;;;;;;;;14.50;48.60;;;;;;6101600;23;20243;-80
2022/04/13 08:02:37;;;;;;;;;;;14.70;50.20;;;;;;6149896;23;19917;-80
2022/04/13 08:05:04;;;;;;;;;;;14.90;48.60;;;;;;6125892;23;19917;-81
2022/04/13 08:07:31;;;;;;;;;;;15.00;47.80;;;;;;6126200;23;19917;-82
2022/04/13 08:09:58;;;;;;;;;;;15.10;47.30;;;;;;6124399;23;19917;-81
2022/04/13 08:12:29;;;;;;;;;;;15.20;47.60;;;;;;6125489;23;19917;-78
2022/04/13 08:14:56;;;;;;;;;;;15.20;47.10;;;;;;6126756;23;19928;-81
2022/04/13 08:17:24;;;;;;;;;;;15.30;48.10;;;;;;6125618;23;19917;-78
2022/04/13 08:19:51;;;;;;;;;;;15.50;48.10;;;;;;6125599;23;20257;-80
2022/04/13 08:22:27;;;;;;;;;;;15.60;48.20;;;;;;6123705;23;20435;-81
2022/04/13 08:24:54;;;;;;;;;;;15.70;48.30;;;;;;6126859;23;20413;-80
2022/04/13 08:27:21;;;;;;;;;;;15.80;47.40;;;;;;6124633;23;19917;-83
2022/04/13 08:29:48;;;;;;;;;;;15.90;48.10;;;;;;6123820;23;20270;-81
2022/04/13 08:32:18;;;;;;;;;;;15.90;46.40;;;;;;6123907;23;19924;-80
2022/04/13 08:34:45;;;;;;;;;;;15.90;45.90;;;;;;6124586;23;20007;-80
2022/04/13 08:37:12;;;;;;;;;;;16.00;45.60;;;;;;6123536;23;19921;-80
2022/04/13 08:39:39;;;;;;;;;;;16.00;45.60;;;;;;6125057;23;20311;-82
2022/04/13 08:42:13;;;;;;;;;;;16.20;44.80;;;;;;6124073;23;19987;-82
2022/04/13 08:44:46;;;;;;;;;;;16.10;44.80;;;;;;6125505;23;19920;-82
2022/04/13 08:47:15;;;;;;;;;;;16.20;44.30;;;;;;6124406;23;19917;-82
2022/04/13 08:49:43;;;;;;;;;;;16.30;45.50;;;;;;6125304;23;19917;-80
2022/04/13 08:52:13;;;;;;;;;;;16.40;45.40;;;;;;6124142;23;19927;-82
2022/04/13 08:55:04;;;;;;;;;;;16.40;46.00;;;;;;6125245;23;19921;-81
2022/04/13 08:57:35;;;;;;;;;;;16.60;45.60;;;;;;6120481;23;19991;-80
2022/04/13 09:00:04;;;;;;;;;;;16.70;44.90;;;;;;6126221;23;19917;-78
2022/04/13 09:02:50;;;;;;;;;;;16.80;45.00;;;;;;6124480;23;19980;-81
2022/04/13 09:05:18;;;;;;;;;;;16.80;46.60;;;;;;6123312;23;19920;-80
2022/04/13 09:07:46;;;;;;;;;;;16.80;45.30;;;;;;6124778;23;19975;-82
2022/04/13 09:10:18;;;;;;;;;;;16.90;45.60;;;;;;6126564;23;19968;-81
2022/04/13 09:12:45;;;;;;;;;;;16.90;45.40;;;;;;6124879;23;20338;-79
2022/04/13 09:15:12;;;;;;;;;;;17.20;43.90;;;;;;6126188;23;19927;-80
2022/04/13 09:17:40;;;;;;;;;;;17.20;42.90;;;;;;6124699;23;20352;-82
2022/04/13 09:20:07;;;;;;;;;;;17.30;42.30;;;;;;6124834;23;19991;-80
2022/04/13 09:22:34;;;;;;;;;;;17.50;42.90;;;;;;6124571;23;20699;-78
2022/04/13 09:25:01;;;;;;;;;;;17.50;42.10;;;;;;6124601;23;19921;-80
2022/04/13 09:27:28;;;;;;;;;;;17.70;42.60;;;;;;6123056;23;19992;-78
2022/04/13 09:29:55;;;;;;;;;;;17.80;41.70;;;;;;6123881;23;19917;-81
2022/04/13 09:32:23;;;;;;;;;;;18.00;40.30;;;;;;6123809;23;19920;-81
2022/04/13 09:34:51;;;;;;;;;;;18.00;38.90;;;;;;6124353;23;19921;-80
2022/04/13 09:37:18;;;;;;;;;;;18.20;40.30;;;;;;6124905;23;19928;-80
2022/04/13 09:39:46;;;;;;;;;;;18.30;36.10;;;;;;6125034;23;19921;-77
2022/04/13 09:42:13;;;;;;;;;;;18.40;36.20;;;;;;6122980;23;20341;-80
2022/04/13 09:44:40;;;;;;;;;;;18.40;34.50;;;;;;6124425;23;19921;-81
2022/04/13 09:47:11;;;;;;;;;;;18.50;34.60;;;;;;6124225;23;19921;-78
2022/04/13 09:49:44;;;;;;;;;;;18.50;33.50;;;;;;6111838;23;20030;-81
2022/04/13 09:52:11;;;;;;;;;;;18.70;35.50;;;;;;6124564;23;19917;-82
2022/04/13 09:54:47;;;;;;;;;;;18.90;35.70;;;;;;6123610;23;19948;-81
2022/04/13 09:57:21;;;;;;;;;;;18.70;31.80;;;;;;6123644;23;19916;-80
2022/04/13 09:59:58;;;;;;;;;;;18.60;35.40;;;;;;6124514;23;20389;-78
2022/04/13 10:02:37;;;;;;;;;;;18.50;35.10;;;;;;6123253;23;19921;-81
2022/04/13 10:05:05;;;;;;;;;;;18.40;37.00;;;;;;6125075;23;19940;-81
2022/04/13 10:07:32;;;;;;;;;;;18.70;36.10;;;;;;6122509;23;19917;-81
2022/04/13 10:09:59;;;;;;;;;;;18.70;33.90;;;;;;6124833;23;19917;-81
2022/04/13 10:12:26;;;;;;;;;;;18.90;34.80;;;;;;6122748;23;19924;-81
2022/04/13 10:15:05;;;;;;;;;;;18.90;36.00;;;;;;6126575;23;19917;-82
2022/04/13 10:17:33;;;;;;;;;;;18.90;35.50;;;;;;6123284;23;19970;-81
2022/04/13 10:19:59;;;;;;;;;;;18.90;35.30;;;;;;6125271;23;19968;-83
2022/04/13 10:22:26;;;;;;;;;;;18.90;36.50;;;;;;6123343;23;19921;-81
2022/04/13 10:24:53;;;;;;;;;;;19.10;37.10;;;;;;6124967;23;19921;-80
2022/04/13 10:27:24;;;;;;;;;;;19.10;36.70;;;;;;6123484;23;20305;-78
2022/04/13 10:29:51;;;;;;;;;;;19.00;35.60;;;;;;6123979;23;19917;-81
2022/04/13 10:32:22;;;;;;;;;;;19.10;38.20;;;;;;6125061;23;19947;-80
2022/04/13 10:34:50;;;;;;;;;;;19.20;37.70;;;;;;6125014;23;19992;-82
2022/04/13 10:37:19;;;;;;;;;;;18.90;38.20;;;;;;6125369;23;19940;-82
2022/04/13 10:39:49;;;;;;;;;;;18.80;37.10;;;;;;6124618;23;19924;-78
2022/04/13 10:42:17;;;;;;;;;;;18.80;38.30;;;;;;6124160;23;19973;-81
2022/04/13 10:44:53;;;;;;;;;;;19.00;38.00;;;;;;6126412;23;19917;-81
2022/04/13 10:47:39;;;;;;;;;;;18.70;37.80;;;;;;6126004;23;19921;-81
2022/04/13 10:50:07;;;;;;;;;;;19.10;39.40;;;;;;6125848;23;19921;-81
2022/04/13 10:52:39;;;;;;;;;;;19.40;37.00;;;;;;6125306;23;19940;-80
2022/04/13 10:55:08;;;;;;;;;;;19.70;36.70;;;;;;6125383;23;19968;-81
2022/04/13 10:57:49;;;;;;;;;;;19.70;36.40;;;;;;6123095;23;19950;-81
2022/04/13 11:00:17;;;;;;;;;;;19.80;35.40;;;;;;6123969;23;19921;-78
2022/04/13 11:02:50;;;;;;;;;;;20.20;34.90;;;;;;6149980;23;19917;-81
2022/04/13 11:05:17;;;;;;;;;;;20.20;37.00;;;;;;6127008;23;19920;-81
2022/04/13 11:07:45;;;;;;;;;;;20.50;33.90;;;;;;6124247;23;19979;-81
2022/04/13 11:10:16;;;;;;;;;;;20.40;34.60;;;;;;6124157;23;20338;-80
2022/04/13 11:12:43;;;;;;;;;;;20.50;33.30;;;;;;6125070;23;19917;-78
2022/04/13 11:15:18;;;;;;;;;;;20.70;32.10;;;;;;6126144;23;19921;-82
2022/04/13 11:17:45;;;;;;;;;;;20.80;31.80;;;;;;6125163;23;19917;-81
2022/04/13 11:20:22;;;;;;;;;;;20.90;32.00;;;;;;6126211;23;20365;-82
2022/04/13 11:23:08;;;;;;;;;;;20.80;31.90;;;;;;6125390;23;19923;-82
2022/04/13 11:25:45;;;;;;;;;;;21.00;32.00;;;;;;6125924;23;20338;-79
2022/04/13 11:28:22;;;;;;;;;;;21.10;32.80;;;;;;6127373;23;19928;-80
2022/04/13 11:31:02;;;;;;;;;;;21.10;33.60;;;;;;6125818;23;19921;-79
2022/04/13 11:33:43;;;;;;;;;;;21.30;32.40;;;;;;6124395;23;20350;-80
2022/04/13 11:36:10;;;;;;;;;;;21.10;30.50;;;;;;6127707;23;19961;-82
2022/04/13 11:38:57;;;;;;;;;;;20.90;31.50;;;;;;6127850;23;19921;-80
2022/04/13 11:41:24;;;;;;;;;;;20.90;32.60;;;;;;6118456;23;19988;-82
2022/04/13 11:43:50;;;;;;;;;;;20.90;33.40;;;;;;6125926;23;19916;-81
2022/04/13 11:46:36;;;;;;;;;;;21.10;32.90;;;;;;6125745;23;20338;-81
2022/04/13 11:49:04;;;;;;;;;;;21.10;31.90;;;;;;6125882;23;19979;-82
2022/04/13 11:51:32;;;;;;;;;;;20.50;32.90;;;;;;6128053;23;19924;-80
2022/04/13 11:54:10;;;;;;;;;;;20.70;33.80;;;;;;6126540;23;19921;-80
2022/04/13 11:56:38;;;;;;;;;;;21.10;34.10;;;;;;6129329;23;19928;-79
2022/04/13 11:59:05;;;;;;;;;;;20.90;32.20;;;;;;6125202;23;19924;-80
2022/04/13 12:01:33;;;;;;;;;;;21.00;33.80;;;;;;6150486;23;19916;-78
2022/04/13 12:04:04;;;;;;;;;;;21.40;32.40;;;;;;6125661;23;19947;-82
2022/04/13 12:06:31;;;;;;;;;;;21.40;32.70;;;;;;6127184;23;19921;-80
2022/04/13 12:08:58;;;;;;;;;;;21.70;33.20;;;;;;6125796;23;19972;-80
2022/04/13 12:11:46;;;;;;;;;;;21.70;32.20;;;;;;6125381;23;19967;-79
2022/04/13 12:14:27;;;;;;;;;;;21.20;32.40;;;;;;6124404;23;19923;-82
2022/04/13 12:16:57;;;;;;;;;;;21.60;33.20;;;;;;6123135;23;19971;-80
2022/04/13 12:19:24;;;;;;;;;;;21.90;32.90;;;;;;6124078;23;20334;-83
2022/04/13 12:21:51;;;;;;;;;;;21.30;34.00;;;;;;6125846;23;19916;-82
2022/04/13 12:24:17;;;;;;;;;;;21.60;32.40;;;;;;6125356;23;19968;-83
2022/04/13 12:26:46;;;;;;;;;;;22.00;33.40;;;;;;6124672;23;19945;-83
2022/04/13 12:29:25;;;;;;;;;;;22.60;32.10;;;;;;6125263;23;19927;-80
2022/04/13 12:31:55;;;;;;;;;;;22.80;30.40;;;;;;6123787;23;19921;-82
2022/04/13 12:34:22;;;;;;;;;;;22.50;31.60;;;;;;6127389;23;19920;-79
2022/04/13 12:36:50;;;;;;;;;;;22.40;31.70;;;;;;6124103;23;19916;-79
2022/04/13 12:39:17;;;;;;;;;;;22.40;33.40;;;;;;6124087;23;19917;-79
2022/04/13 12:41:44;;;;;;;;;;;22.40;32.50;;;;;;6125155;23;19917;-79
2022/04/13 12:44:11;;;;;;;;;;;22.40;32.50;;;;;;6125463;23;19927;-83
2022/04/13 12:46:38;;;;;;;;;;;22.40;32.70;;;;;;6126173;23;19921;-83
2022/04/13 12:49:05;;;;;;;;;;;22.30;32.20;;;;;;6123764;23;19928;-80
2022/04/13 12:51:38;;;;;;;;;;;22.30;31.60;;;;;;6128023;23;20013;-82
2022/04/13 12:54:06;;;;;;;;;;;22.10;34.00;;;;;;6123826;23;19921;-82
2022/04/13 12:56:37;;;;;;;;;;;22.00;32.10;;;;;;6125924;23;19917;-82
2022/04/13 12:59:05;;;;;;;;;;;21.70;32.60;;;;;;6124394;23;20344;-80
2022/04/13 13:01:33;;;;;;;;;;;21.90;33.20;;;;;;6125757;23;19921;-80
2022/04/13 13:04:06;;;;;;;;;;;21.70;32.40;;;;;;6125384;23;19921;-84
2022/04/13 13:06:33;;;;;;;;;;;21.60;32.60;;;;;;6125103;23;19917;-79
2022/04/13 13:09:02;;;;;;;;;;;21.90;32.10;;;;;;6125033;23;19920;-82
2022/04/13 13:11:33;;;;;;;;;;;21.30;33.50;;;;;;6127873;23;19924;-78
2022/04/13 13:14:10;;;;;;;;;;;21.60;33.90;;;;;;6125610;23;19996;-82
2022/04/13 13:16:45;;;;;;;;;;;21.90;32.00;;;;;;6126287;23;19987;-81
2022/04/13 13:19:16;;;;;;;;;;;21.80;33.30;;;;;;6124819;23;19961;-80
2022/04/13 13:22:01;;;;;;;;;;;21.80;31.70;;;;;;6125340;23;19959;-83
2022/04/13 13:24:29;;;;;;;;;;;21.70;33.20;;;;;;6123987;23;19930;-83
2022/04/13 13:26:56;;;;;;;;;;;21.90;32.90;;;;;;6124631;23;19984;-79
2022/04/13 13:29:22;;;;;;;;;;;21.70;32.10;;;;;;6124018;23;19917;-80
2022/04/13 13:31:49;;;;;;;;;;;21.60;34.40;;;;;;6124018;23;20412;-79
2022/04/13 13:34:22;;;;;;;;;;;21.50;33.60;;;;;;6124008;23;20374;-80
2022/04/13 13:36:56;;;;;;;;;;;21.50;32.70;;;;;;6122760;23;19971;-80
2022/04/13 13:39:23;;;;;;;;;;;21.80;32.90;;;;;;6122916;23;19948;-85
2022/04/13 13:42:09;;;;;;;;;;;22.30;34.00;;;;;;6123789;23;20239;-83
2022/04/13 13:44:36;;;;;;;;;;;22.20;33.30;;;;;;6122766;23;19924;-85
2022/04/13 13:47:03;;;;;;;;;;;21.80;34.40;;;;;;6124970;23;19924;-79
2022/04/13 13:49:30;;;;;;;;;;;22.10;33.70;;;;;;6123409;23;19921;-80
2022/04/13 13:51:56;;;;;;;;;;;22.50;32.90;;;;;;6123763;23;19944;-79
2022/04/13 13:54:25;;;;;;;;;;;21.90;32.30;;;;;;6124473;23;19976;-85
2022/04/13 13:56:53;;;;;;;;;;;22.00;33.30;;;;;;6122694;23;19924;-80
2022/04/13 13:59:20;;;;;;;;;;;22.00;33.90;;;;;;6124185;23;19944;-80
2022/04/13 14:01:47;;;;;;;;;;;22.10;33.60;;;;;;6123835;23;19921;-81
2022/04/13 14:04:14;;;;;;;;;;;22.40;33.20;;;;;;6124990;23;19959;-80
2022/04/13 14:06:41;;;;;;;;;;;22.30;33.20;;;;;;6124294;23;19984;-80
2022/04/13 14:09:08;;;;;;;;;;;22.50;32.70;;;;;;6124130;23;19921;-82
2022/04/13 14:11:35;;;;;;;;;;;22.60;33.10;;;;;;6124183;23;20314;-80
2022/04/13 14:14:02;;;;;;;;;;;22.70;31.90;;;;;;6123561;23;19940;-84
2022/04/13 14:16:29;;;;;;;;;;;23.00;31.70;;;;;;6121800;23;20238;-80
2022/04/13 14:18:56;;;;;;;;;;;23.30;30.90;;;;;;6125286;23;20004;-82
2022/04/13 14:21:22;;;;;;;;;;;23.40;30.70;;;;;;6122999;23;19921;-84
2022/04/13 14:23:49;;;;;;;21.42;11.85;;;22.90;32.70;;;;;;6122731;23;19917;-82
2022/04/13 14:26:16;;;;;;;20.75;11.77;;;22.20;31.60;;;;;;6120911;23;20201;-79
2022/04/13 14:28:45;;;;;;;19.63;12.25;;;22.00;33.20;;;;;;6122548;23;20033;-80
2022/04/13 14:31:12;;;;;;;29.25;14.63;;;22.30;33.20;;;;;;6123343;23;20084;-80
2022/04/13 14:33:39;;;;;;;23.63;13.50;;;21.80;33.30;;;;;;6122793;23;20018;-80
2022/04/13 14:36:06;;;;;;;24.10;12.45;;;21.60;32.90;;;;;;6123183;23;20021;-79
2022/04/13 14:38:32;;;;;;;;;;;21.70;34.10;;;;;;6125028;23;20025;-80
2022/04/13 14:40:59;;;;;;;22.77;12.40;;;22.10;32.80;;;;;;6124502;23;19967;-80
2022/04/13 14:43:26;;;;;;;23.95;12.10;;;22.20;31.80;;;;;;6123214;23;20018;-80
2022/04/13 14:45:53;;;;;;;19.10;11.25;;;22.30;32.60;;;;;;6121898;23;20407;-84
2022/04/13 14:48:20;;;;;;;27.30;12.70;;;22.80;32.50;;;;;;6123966;23;20025;-80
2022/04/13 14:50:47;;;;;;;18.65;11.10;;;22.80;31.90;;;;;;6126350;23;20073;-79
2022/04/13 14:53:15;;;;;;;19.33;10.05;;;23.20;32.10;;;;;;6125136;23;20029;-84
2022/04/13 14:55:42;;;;;;;;;;;23.30;31.20;;;;;;6124510;23;20022;-84
2022/04/13 14:58:09;;;;;;;;;;;22.80;31.10;;;;;;6125183;23;20401;-84
2022/04/13 15:00:36;;;;;;;;;;;22.50;32.50;;;;;;6123588;23;20342;-84
2022/04/13 15:03:03;;;;;;;;;;;22.10;32.20;;;;;;6125278;23;19991;-84
2022/04/13 15:05:30;;;;;;;;;;;22.30;31.60;;;;;;6125555;23;19921;-80
2022/04/13 15:07:57;;;;;;;;;;;22.00;32.10;;;;;;6124880;23;19924;-83
2022/04/13 15:10:24;;;;;;;;;;;21.90;32.30;;;;;;6123906;23;19924;-82
2022/04/13 15:12:51;;;;;;;;;;;22.20;32.80;;;;;;6124605;23;20393;-84
2022/04/13 15:15:18;;;;;;;;;;;22.70;32.60;;;;;;6124401;23;19920;-85
2022/04/13 15:17:45;;;;;;;;;;;22.80;31.80;;;;;;6124804;23;20227;-79
2022/04/13 15:20:14;;;;;;;;;;;22.30;31.60;;;;;;6127119;23;19920;-80
2022/04/13 15:22:42;;;;;;;;;;;22.20;33.00;;;;;;6121989;23;19939;-83
2022/04/13 15:25:10;;;;;;;;;;;22.70;30.90;;;;;;6127394;23;20305;-80
2022/04/13 15:27:41;;;;;;;;;;;23.00;31.00;;;;;;6124673;23;20250;-82
2022/04/13 15:30:12;;;;;;;;;;;23.20;30.50;;;;;;6128064;23;19921;-80
2022/04/13 15:32:38;;;;;;;;;;;23.50;30.00;;;;;;6124801;23;19917;-79
2022/04/13 15:35:05;;;;;;;;;;;23.40;29.80;;;;;;6125097;23;19964;-79
2022/04/13 15:37:32;;;;;;;;;;;23.50;30.30;;;;;;6123561;23;19917;-83
2022/04/13 15:39:59;;;;;;;;;;;23.40;30.00;;;;;;6124942;23;19921;-84
2022/04/13 15:42:30;;;;;;;;;;;22.90;30.80;;;;;;6124930;23;19971;-80
2022/04/13 15:44:58;;;;;;;;;;;22.80;30.90;;;;;;6125446;23;19920;-82
2022/04/13 15:47:25;;;;;;;;;;;22.90;31.30;;;;;;6117683;23;19944;-83
2022/04/13 15:49:54;;;;;;;;;;;22.80;30.90;;;;;;6123321;23;19924;-85
2022/04/13 15:52:23;;;;;;;;;;;22.30;31.90;;;;;;6124932;23;20339;-84
2022/04/13 15:54:50;;;;;;;;;;;22.00;32.30;;;;;;6123025;23;19921;-81
2022/04/13 15:57:20;;;;;;;;;;;22.30;32.00;;;;;;6124852;23;19968;-80
2022/04/13 15:59:48;;;;;;;;;;;22.40;31.20;;;;;;6123170;23;19925;-80
2022/04/13 16:02:16;;;;;;;;;;;22.70;31.70;;;;;;6149046;23;19967;-80
2022/04/13 16:04:42;;;;;;;;;;;22.80;31.10;;;;;;6123812;23;19916;-80
2022/04/13 16:07:10;;;;;;;;;;;22.50;31.90;;;;;;6123943;23;19920;-84
2022/04/13 16:09:37;;;;;;;;;;;22.60;31.70;;;;;;6121760;23;19923;-83
2022/04/13 16:12:05;;;;;;;;;;;22.70;31.80;;;;;;6124159;23;20397;-80
2022/04/13 16:14:32;;;;;;;;;;;22.50;31.50;;;;;;6123710;23;19921;-81
2022/04/13 16:17:00;;;;;;;;;;;22.30;31.60;;;;;;6124484;23;19920;-83
2022/04/13 16:19:27;;;;;;;;;;;22.70;31.00;;;;;;6124467;23;19972;-85
2022/04/13 16:21:54;;;;;;;;;;;22.50;31.70;;;;;;6123305;23;19917;-80
2022/04/13 16:24:21;;;;;;;;;;;22.80;31.60;;;;;;6124212;23;19972;-80
2022/04/13 16:26:47;;;;;;;;;;;22.90;31.80;;;;;;6123383;23;19941;-80
2022/04/13 16:29:14;;;;;;;;;;;23.00;31.00;;;;;;6124506;23;19917;-83
2022/04/13 16:31:41;;;;;;;;;;;22.80;30.60;;;;;;6123907;23;19924;-84
2022/04/13 16:34:08;;;;;;;;;;;23.10;30.60;;;;;;6125188;23;19921;-80
2022/04/13 16:36:35;;;;;;;;;;;23.10;30.40;;;;;;6124187;23;19925;-80
2022/04/13 16:39:02;;;;;;;;;;;22.90;31.10;;;;;;6125788;23;19967;-82
2022/04/13 16:41:29;;;;;;;21.25;11.27;;;22.80;31.00;;;;;;6123784;23;19917;-80
2022/04/13 16:44:12;;;;;;;19.15;12.07;;;22.90;30.90;;;;;;6110647;23;20114;-84
2022/04/13 16:46:39;;;;;;;22.27;11.60;;;22.80;31.10;;;;;;6125753;23;20018;-82
2022/04/13 16:49:06;;;;;;;;;;;22.60;31.20;;;;;;6124766;23;20021;-84
2022/04/13 16:51:33;;;;;;;;;;;22.50;31.40;;;;;;6125774;23;20283;-83
2022/04/13 16:54:00;;;;;;;16.55;9.70;;;22.50;31.50;;;;;;6122985;23;19925;-79
2022/04/13 16:56:27;;;;;;;;;;;22.50;31.70;;;;;;6124825;23;20046;-83
2022/04/13 16:58:54;;;;;;;;;;;22.30;32.20;;;;;;6124383;23;20247;-83
2022/04/13 17:01:21;;;;;;;;;;;21.70;32.60;;;;;;6148322;23;19983;-80
2022/04/13 17:03:48;;;;;;;;;;;21.50;32.70;;;;;;6123347;23;19917;-79
2022/04/13 17:06:15;;;;;;;;;;;21.20;33.00;;;;;;6125112;23;19928;-79
2022/04/13 17:08:41;;;;;;;;;;;21.20;34.00;;;;;;6125068;23;20258;-83
2022/04/13 17:11:08;;;;;;;;;;;21.20;34.20;;;;;;6123757;23;20401;-81
2022/04/13 17:13:35;;;;;;;;;;;20.90;33.50;;;;;;6124096;23;20231;-82
2022/04/13 17:16:02;;;;;;;;;;;20.70;33.60;;;;;;6122251;23;20401;-80
2022/04/13 17:18:30;;;;;;;;;;;20.60;34.00;;;;;;6123043;23;19929;-79
2022/04/13 17:20:57;;;;;;;;;;;20.50;34.10;;;;;;6122995;23;20334;-82
2022/04/13 17:23:26;;;;;;;;;;;20.30;34.70;;;;;;6124522;23;19928;-83
2022/04/13 17:25:53;;;;;;;;;;;20.20;34.90;;;;;;6122363;23;19920;-83
2022/04/13 17:28:20;;;;;;;;;;;20.00;34.80;;;;;;6123368;23;19968;-83
2022/04/13 17:30:47;;;;;;;;;;;19.90;35.30;;;;;;6123405;23;19917;-81
2022/04/13 17:33:14;;;;;;;;;;;19.80;35.40;;;;;;6125480;23;19917;-80
2022/04/13 17:35:41;;;;;;;;;;;19.70;35.80;;;;;;6124126;23;20330;-83
2022/04/13 17:38:08;;;;;;;;;;;19.70;35.80;;;;;;6123240;23;19925;-82
2022/04/13 17:40:35;;;;;;;;;;;19.60;36.00;;;;;;6123960;23;20338;-80
2022/04/13 17:43:02;;;;;;;;;;;19.60;36.30;;;;;;6123815;23;19921;-80
2022/04/13 17:45:30;;;;;;;;;;;19.50;36.10;;;;;;6126320;23;19921;-79
2022/04/13 17:47:57;;;;;;;;;;;19.40;36.20;;;;;;6125460;23;19924;-83
2022/04/13 17:50:24;;;;;;;;;;;19.30;36.10;;;;;;6122841;23;19952;-80
2022/04/13 17:52:50;;;;;;;;;;;19.20;36.70;;;;;;6121715;23;19920;-80
2022/04/13 17:55:18;;;;;;;;;;;19.20;36.70;;;;;;6124908;23;19921;-80
2022/04/13 17:57:45;;;;;;;;;;;19.10;36.30;;;;;;6123656;23;19971;-81
2022/04/13 18:00:14;;;;;;;;;;;19.00;37.00;;;;;;6121198;23;19917;-83
2022/04/13 18:02:41;;;;;;;;;;;19.00;36.40;;;;;;6123935;23;19917;-79
2022/04/13 18:05:09;;;;;;;;;;;19.00;37.10;;;;;;6121922;23;20334;-79
2022/04/13 18:07:36;;;;;;;;;;;18.90;37.20;;;;;;6121946;23;19917;-81
2022/04/13 18:10:03;;;;;;;;;;;18.80;37.40;;;;;;6123894;23;19917;-83
2022/04/13 18:12:33;;;;;;;;;;;18.70;37.50;;;;;;6124650;23;20345;-82
2022/04/13 18:14:59;;;;;;;;;;;18.70;37.80;;;;;;6122359;23;19920;-79
2022/04/13 18:17:27;;;;;;;;;;;18.70;37.70;;;;;;6125344;23;19972;-82
2022/04/13 18:19:55;;;;;;;;;;;18.60;39.40;;;;;;6121500;23;19976;-82
2022/04/13 18:22:23;;;;;;;;;;;18.60;40.60;;;;;;6122718;23;20290;-82
2022/04/13 18:24:51;;;;;;;;;;;18.40;41.60;;;;;;6123968;23;20349;-80
2022/04/13 18:27:18;;;;;;;;;;;18.20;42.00;;;;;;6124408;23;19916;-80
2022/04/13 18:29:45;;;;;;;;;;;18.10;42.90;;;;;;6124228;23;19921;-82
2022/04/13 18:32:12;;;;;;;;;;;17.90;43.00;;;;;;6122379;23;19924;-79
2022/04/13 18:34:39;;;;;;;;;;;17.90;43.30;;;;;;6126507;23;19964;-80
2022/04/13 18:37:06;;;;;;;;;;;17.60;44.00;;;;;;6122713;23;19976;-82
2022/04/13 18:39:32;;;;;;;;;;;17.50;44.30;;;;;;6123900;23;19963;-82
2022/04/13 18:42:01;;;;;;;;;;;17.40;44.60;;;;;;6124858;23;19917;-79
2022/04/13 18:44:28;;;;;;;;;;;17.30;44.50;;;;;;6149124;23;19916;-82
2022/04/13 18:46:54;;;;;;;;;;;17.30;44.50;;;;;;6124674;23;20377;-79
2022/04/13 18:49:21;;;;;;;;;;;17.30;44.40;;;;;;6124356;23;19924;-83
2022/04/13 18:51:48;;;;;;;;;;;17.20;44.80;;;;;;6122988;23;19944;-80
2022/04/13 18:54:15;;;;;;;;;;;17.00;44.90;;;;;;6121902;23;19925;-82
2022/04/13 18:56:44;;;;;;;;;;;17.00;46.20;;;;;;6126942;23;19921;-79
2022/04/13 18:59:17;;;;;;;;;;;16.90;46.40;;;;;;6124410;23;19917;-80
2022/04/13 19:01:50;;;;;;;;;;;16.70;46.90;;;;;;6124176;23;20390;-82
2022/04/13 19:04:19;;;;;;;;;;;16.70;46.50;;;;;;6123266;23;20380;-82
2022/04/13 19:06:46;;;;;;;;;;;16.60;46.80;;;;;;6125269;23;19987;-79
2022/04/13 19:09:14;;;;;;;;;;;16.50;46.60;;;;;;6121448;23;20173;-83
2022/04/13 19:11:41;;;;;;;;;;;16.40;46.80;;;;;;6122251;23;19927;-82
2022/04/13 19:14:08;;;;;;;;;;;16.30;46.80;;;;;;6122716;23;20346;-80
2022/04/13 19:16:35;;;;;;;;;;;16.20;46.30;;;;;;6122010;23;19921;-80
2022/04/13 19:19:06;;;;;;;;;;;16.20;47.30;;;;;;6123919;23;19923;-82
2022/04/13 19:21:39;;;;;;;;;;;16.00;47.30;;;;;;6124702;23;19916;-80
2022/04/13 19:24:06;;;;;;;;;;;15.90;47.30;;;;;;6122286;23;19917;-82
2022/04/13 19:26:33;;;;;;;;;;;15.80;47.40;;;;;;6126099;23;20038;-82
2022/04/13 19:29:00;;;;;;;;;;;15.70;49.10;;;;;;6121543;23;19920;-82
2022/04/13 19:31:27;;;;;;;;;;;15.60;49.60;;;;;;6125173;23;19924;-81
2022/04/13 19:34:00;;;;;;;;;;;15.50;48.70;;;;;;6123045;23;19923;-82
2022/04/13 19:36:29;;;;;;;;;;;15.40;48.30;;;;;;6123575;23;19916;-83
2022/04/13 19:38:57;;;;;;;;;;;15.40;49.20;;;;;;6125382;23;19917;-80
2022/04/13 19:41:25;;;;;;;;;;;15.30;49.50;;;;;;6128201;23;19967;-78
2022/04/13 19:43:52;;;;;;;;;;;15.30;50.00;;;;;;6124170;23;19921;-83
2022/04/13 19:46:18;;;;;;;;;;;15.20;49.40;;;;;;6125697;23;19944;-78
2022/04/13 19:48:47;;;;;;;;;;;15.10;50.80;;;;;;6124991;23;20334;-81
2022/04/13 19:51:14;;;;;;;;;;;15.00;50.90;;;;;;6122755;23;19928;-82
2022/04/13 19:53:45;;;;;;;;;;;15.00;51.00;;;;;;6125163;23;20360;-80
2022/04/13 19:56:12;;;;;;;;;;;14.90;51.30;;;;;;6123651;23;19925;-79
2022/04/13 19:58:39;;;;;;;;;;;14.80;52.30;;;;;;6125820;23;19925;-83
2022/04/13 20:01:06;;;;;;;;;;;14.80;51.60;;;;;;6125101;23;20338;-83
2022/04/13 20:03:33;;;;;;;;;;;14.70;52.20;;;;;;6148897;23;19968;-84
2022/04/13 20:06:01;;;;;;;;;;;14.60;52.00;;;;;;6124386;23;19921;-81
2022/04/13 20:08:28;;;;;;;;;;;14.50;53.70;;;;;;6124669;23;20337;-78
2022/04/13 20:10:55;;;;;;;;;;;14.40;53.10;;;;;;6127977;23;20334;-81
2022/04/13 20:13:23;;;;;;;;;;;14.40;53.30;;;;;;6125082;23;20297;-78
2022/04/13 20:15:50;;;;;;;;;;;14.40;52.90;;;;;;6126443;23;19948;-78
2022/04/13 20:18:17;;;;;;;;;;;14.40;52.60;;;;;;6124994;23;20278;-80
2022/04/13 20:20:43;;;;;;;;;;;14.30;54.00;;;;;;6121552;23;19917;-79
2022/04/13 20:23:11;;;;;;;;;;;14.30;53.30;;;;;;6124572;23;19973;-83
2022/04/13 20:25:38;;;;;;;;;;;14.10;55.50;;;;;;6125412;23;19952;-79
2022/04/13 20:28:05;;;;;;;;;;;14.10;54.50;;;;;;6125071;23;19921;-78
2022/04/13 20:30:32;;;;;;;;;;;14.00;54.50;;;;;;6123664;23;19917;-82
2022/04/13 20:33:00;;;;;;;;;;;14.00;54.10;;;;;;6124684;23;20253;-80
2022/04/13 20:35:28;;;;;;;;;;;13.90;53.90;;;;;;6123656;23;28361;-82
2022/04/13 20:37:57;;;;;;;;;;;13.90;55.00;;;;;;6123992;23;20273;-81
2022/04/13 20:40:25;;;;;;;;;;;13.90;54.20;;;;;;6123468;23;19923;-80
2022/04/13 20:42:52;;;;;;;;;;;13.80;54.40;;;;;;6125374;23;19984;-79
2022/04/13 20:45:19;;;;;;;;;;;13.60;55.30;;;;;;6124779;23;19948;-81
2022/04/13 20:47:46;;;;;;;;;;;13.60;55.80;;;;;;6125129;23;19917;-81
2022/04/13 20:50:13;;;;;;;;;;;13.50;56.70;;;;;;6124915;23;19917;-78
2022/04/13 20:52:40;;;;;;;;;;;13.40;56.70;;;;;;6124034;23;19921;-80
2022/04/13 20:55:07;;;;;;;;;;;13.40;55.60;;;;;;6122307;23;19996;-80
2022/04/13 20:57:34;;;;;;;;;;;13.40;56.20;;;;;;6123788;23;19972;-81
2022/04/13 21:00:01;;;;;;;;;;;13.30;55.80;;;;;;6123376;23;19971;-81
2022/04/13 21:02:27;;;;;;;;;;;13.30;55.80;;;;;;6123774;23;19917;-82
2022/04/13 21:04:54;;;;;;;;;;;13.30;55.90;;;;;;6122326;23;20338;-82
2022/04/13 21:07:21;;;;;;;;;;;13.20;56.40;;;;;;6123417;23;20326;-81
2022/04/13 21:09:52;;;;;;;;;;;13.20;56.10;;;;;;6125672;23;19916;-81
2022/04/13 21:12:18;;;;;;;;;;;13.10;56.70;;;;;;6125456;23;19921;-82
2022/04/13 21:14:45;;;;;;;;;;;13.10;58.10;;;;;;6125413;23;19925;-81
2022/04/13 21:17:12;;;;;;;;;;;13.00;58.00;;;;;;6122104;23;19921;-80
2022/04/13 21:19:39;;;;;;;;;;;13.00;58.80;;;;;;6123405;23;19916;-80
2022/04/13 21:22:06;;;;;;;;;;;12.90;59.80;;;;;;6124100;23;19924;-80
2022/04/13 21:24:32;;;;;;;;;;;12.90;59.10;;;;;;6122293;23;19976;-78
2022/04/13 21:26:59;;;;;;;;;;;12.80;59.00;;;;;;6124328;23;19921;-79
2022/04/13 21:29:26;;;;;;;;;;;12.70;59.80;;;;;;6124202;23;19917;-79
2022/04/13 21:31:53;;;;;;;;;;;12.70;59.30;;;;;;6124186;23;19980;-80
2022/04/13 21:34:20;;;;;;;;;;;12.60;59.00;;;;;;6123942;23;19925;-78
2022/04/13 21:36:46;;;;;;;;;;;12.60;59.30;;;;;;6123743;23;19983;-80
2022/04/13 21:39:13;;;;;;;;;;;12.50;60.30;;;;;;6123895;23;20334;-79
2022/04/13 21:41:40;;;;;;;;;;;12.50;61.10;;;;;;6123910;23;19944;-80
2022/04/13 21:44:08;;;;;;;;;;;12.40;60.50;;;;;;6123793;23;19917;-80
2022/04/13 21:46:34;;;;;;;;;;;12.30;61.10;;;;;;6122945;23;19940;-81
2022/04/13 21:49:01;;;;;;;;;;;12.30;62.40;;;;;;6123533;23;19917;-79
2022/04/13 21:51:28;;;;;;;;;;;12.10;61.30;;;;;;6124971;23;19917;-78
2022/04/13 21:53:55;;;;;;;;;;;12.10;61.30;;;;;;6124620;23;19925;-81
2022/04/13 21:56:22;;;;;;;;;;;12.10;62.90;;;;;;6124039;23;19925;-81
2022/04/13 21:58:49;;;;;;;;;;;12.10;62.90;;;;;;6124037;23;20511;-81
2022/04/13 22:01:16;;;;;;;;;;;12.00;62.80;;;;;;6123368;23;19917;-78
2022/04/13 22:03:46;;;;;;;;;;;11.90;63.30;;;;;;6123667;23;19917;-80
2022/04/13 22:06:14;;;;;;;;;;;11.70;64.60;;;;;;6123958;23;19924;-82
2022/04/13 22:08:41;;;;;;;;;;;11.60;64.20;;;;;;6122547;23;20472;-80
2022/04/13 22:11:08;;;;;;;;;;;11.60;63.30;;;;;;6122998;23;19916;-79
2022/04/13 22:13:35;;;;;;;;;;;11.50;63.40;;;;;;6124470;23;19924;-80
2022/04/13 22:16:03;;;;;;;;;;;11.50;63.40;;;;;;6124824;23;20257;-81
2022/04/13 22:18:32;;;;;;;;;;;11.50;64.00;;;;;;6123909;23;19921;-82